Time;durP1;ratioP1;P1;durP2;ratioP2;P2;SDS_P1;SDS_P2;PMS_P1;PMS_P2;Temp;Humidity;BMP_temperature;BMP_pressure;BME280_temperature;BME280_humidity;BME280_pressure;Samples;Min_cycle;Max_cycle;Signal;HPM_P1;HPM_P2
2023/05/05 00:00:58;;;;;;;64.32;35.83;;;;;;;;;;5016489;28;20058;-82
2023/05/05 00:03:43;;;;;;;28.35;15.25;;;;;;;;;;5015401;28;20496;-82
2023/05/05 00:06:30;;;;;;;15.27;8.48;;;;;;;;;;5016280;28;20045;-81
2023/05/05 00:09:15;;;;;;;14.20;8.40;;;;;;;;;;5015709;28;20054;-81
2023/05/05 00:12:01;;;;;;;17.77;9.65;;;;;;;;;;5021966;28;20038;-78
2023/05/05 00:14:46;;;;;;;13.48;7.57;;;;;;;;;;5007786;28;20398;-78
2023/05/05 00:17:32;;;;;;;9.18;7.20;;;;;;;;;;5016328;28;20046;-78
2023/05/05 00:20:18;;;;;;;9.02;6.65;;;;;;;;;;5015930;28;20407;-79
2023/05/05 00:23:03;;;;;;;11.98;7.43;;;;;;;;;;5008110;28;20053;-82
2023/05/05 00:25:49;;;;;;;11.93;7.95;;;;;;;;;;5016113;28;20050;-78
2023/05/05 00:28:35;;;;;;;13.38;8.35;;;;;;;;;;5015428;28;20516;-82
2023/05/05 00:31:21;;;;;;;12.85;8.27;;;;;;;;;;5015991;28;20046;-82
2023/05/05 00:34:07;;;;;;;11.32;7.80;;;;;;;;;;5015952;28;20046;-79
2023/05/05 00:36:52;;;;;;;12.00;8.02;;;;;;;;;;5015999;28;20054;-79
2023/05/05 00:39:37;;;;;;;14.73;7.68;;;;;;;;;;5021363;28;20033;-82
2023/05/05 00:42:23;;;;;;;10.70;7.53;;;;;;;;;;5015888;28;20045;-82
2023/05/05 00:45:10;;;;;;;12.73;7.78;;;;;;;;;;5014619;28;20050;-80
2023/05/05 00:47:58;;;;;;;10.65;7.50;;;;;;;;;;5015240;28;20045;-79
2023/05/05 00:50:44;;;;;;;15.63;8.93;;;;;;;;;;5015655;28;20065;-81
2023/05/05 00:53:30;;;;;;;22.00;11.35;;;;;;;;;;5020871;28;20042;-78
2023/05/05 00:56:20;;;;;;;21.98;11.38;;;;;;;;;;5014334;28;20050;-78
2023/05/05 00:59:06;;;;;;;17.98;10.15;;;;;;;;;;5021123;28;20045;-80
2023/05/05 01:01:51;;;;;;;15.65;9.85;;;;;;;;;;5015379;28;20054;-78
2023/05/05 01:04:38;;;;;;;15.40;9.55;;;;;;;;;;5020920;28;20046;-79
2023/05/05 01:07:48;;;;;;;14.98;9.30;;;;;;;;;;5020919;28;20045;-82
2023/05/05 01:10:40;;;;;;;22.60;9.50;;;;;;;;;;5014482;28;20480;-81
2023/05/05 01:13:36;;;;;;;15.25;9.13;;;;;;;;;;5020850;28;20492;-81
2023/05/05 01:16:28;;;;;;;17.90;10.00;;;;;;;;;;5020426;28;20050;-81
2023/05/05 01:19:49;;;;;;;21.17;10.43;;;;;;;;;;5014847;28;20057;-81
2023/05/05 01:22:43;;;;;;;20.40;8.75;;;;;;;;;;5014562;28;20042;-80
2023/05/05 01:25:40;;;;;;;16.00;8.55;;;;;;;;;;5015197;28;20038;-81
2023/05/05 01:28:44;;;;;;;8.25;5.97;;;;;;;;;;5014727;28;20049;-78
2023/05/05 01:31:53;;;;;;;10.13;7.05;;;;;;;;;;5014766;28;20046;-81
2023/05/05 01:35:00;;;;;;;10.00;6.82;;;;;;;;;;5014787;28;20042;-81
2023/05/05 01:38:10;;;;;;;13.82;6.82;;;;;;;;;;5020302;28;20050;-81
2023/05/05 01:41:10;;;;;;;15.52;7.47;;;;;;;;;;5020079;28;20057;-82
2023/05/05 01:43:58;;;;;;;10.27;7.22;;;;;;;;;;5013483;28;20042;-79
2023/05/05 01:46:43;;;;;;;11.75;7.15;;;;;;;;;;5020138;28;20053;-82
2023/05/05 01:49:31;;;;;;;12.52;8.15;;;;;;;;;;5014799;28;20491;-81
2023/05/05 01:52:17;;;;;;;13.20;7.45;;;;;;;;;;5013446;28;20046;-79
2023/05/05 01:55:06;;;;;;;12.50;7.70;;;;;;;;;;5019784;28;20041;-79
2023/05/05 01:57:52;;;;;;;12.40;7.38;;;;;;;;;;5014322;28;20045;-78
2023/05/05 02:00:39;;;;;;;10.32;7.25;;;;;;;;;;5012576;28;20038;-78
2023/05/05 02:03:26;;;;;;;15.27;8.00;;;;;;;;;;5014556;28;20050;-82
2023/05/05 02:06:13;;;;;;;16.27;8.90;;;;;;;;;;5019755;28;20054;-82
2023/05/05 02:08:59;;;;;;;11.02;8.55;;;;;;;;;;5014384;28;20487;-78
2023/05/05 02:11:45;;;;;;;19.42;11.60;;;;;;;;;;5013671;28;20125;-78
2023/05/05 02:14:35;;;;;;;32.53;17.05;;;;;;;;;;5019502;28;20041;-82
2023/05/05 02:17:22;;;;;;;40.50;16.45;;;;;;;;;;5019066;28;20054;-79
2023/05/05 02:20:09;;;;;;;38.13;18.00;;;;;;;;;;5018710;28;20053;-78
2023/05/05 02:22:55;;;;;;;47.72;18.70;;;;;;;;;;5013832;28;20053;-78
2023/05/05 02:25:44;;;;;;;40.13;18.92;;;;;;;;;;5013213;28;20038;-81
2023/05/05 02:28:41;;;;;;;41.53;20.35;;;;;;;;;;5013419;28;20050;-78
2023/05/05 02:31:28;;;;;;;56.38;25.63;;;;;;;;;;5012947;28;20054;-78
2023/05/05 02:34:21;;;;;;;60.28;25.48;;;;;;;;;;5018495;28;20041;-79
2023/05/05 02:37:10;;;;;;;41.47;19.88;;;;;;;;;;5018482;28;20042;-82
2023/05/05 02:40:04;;;;;;;45.33;20.67;;;;;;;;;;5018495;28;20050;-82
2023/05/05 02:42:53;;;;;;;43.95;22.25;;;;;;;;;;5018432;28;20046;-80
2023/05/05 02:45:41;;;;;;;44.97;21.95;;;;;;;;;;5013211;28;20046;-81
2023/05/05 02:48:28;;;;;;;49.20;22.25;;;;;;;;;;5013717;28;20054;-78
2023/05/05 02:51:16;;;;;;;52.17;22.85;;;;;;;;;;5019066;28;20046;-81
2023/05/05 02:54:02;;;;;;;44.47;20.98;;;;;;;;;;5013983;28;20046;-82
2023/05/05 02:56:49;;;;;;;46.83;18.98;;;;;;;;;;5019084;28;20038;-78
2023/05/05 02:59:49;;;;;;;43.72;18.83;;;;;;;;;;5019079;28;20042;-82
2023/05/05 03:02:47;;;;;;;42.72;20.48;;;;;;;;;;5019777;28;20049;-78
2023/05/05 03:06:15;;;;;;;49.42;20.33;;;;;;;;;;5019771;28;20062;-81
2023/05/05 03:09:14;;;;;;;61.60;23.10;;;;;;;;;;5006083;28;20483;-80
2023/05/05 03:12:05;;;;;;;53.78;23.33;;;;;;;;;;5021535;28;20046;-81
2023/05/05 03:15:01;;;;;;;90.00;23.20;;;;;;;;;;5023670;28;20045;-81
2023/05/05 03:17:50;;;;;;;76.95;23.35;;;;;;;;;;5023436;28;20479;-78
2023/05/05 03:20:38;;;;;;;80.65;22.77;;;;;;;;;;5022565;28;20054;-78
2023/05/05 03:23:26;;;;;;;54.58;23.48;;;;;;;;;;5022757;28;20050;-82
2023/05/05 03:26:17;;;;;;;87.20;26.48;;;;;;;;;;5022570;28;20046;-82
2023/05/05 03:29:05;;;;;;;42.88;20.77;;;;;;;;;;5022837;28;20046;-82
2023/05/05 03:31:51;;;;;;;57.55;23.20;;;;;;;;;;5023179;28;20050;-82
2023/05/05 03:34:36;;;;;;;46.60;23.45;;;;;;;;;;5022629;28;20037;-82
2023/05/05 03:37:23;;;;;;;31.73;12.52;;;;;;;;;;5022355;28;20065;-78
2023/05/05 03:40:09;;;;;;;29.90;17.92;;;;;;;;;;5016584;28;20042;-78
2023/05/05 03:42:54;;;;;;;31.95;19.75;;;;;;;;;;5016843;28;20416;-84
2023/05/05 03:45:40;;;;;;;24.40;13.23;;;;;;;;;;5016894;28;20419;-81
2023/05/05 03:48:25;;;;;;;43.90;20.65;;;;;;;;;;5016839;28;20488;-80
2023/05/05 03:51:11;;;;;;;53.53;23.92;;;;;;;;;;5022499;28;20395;-82
2023/05/05 03:53:56;;;;;;;60.13;22.65;;;;;;;;;;5016736;28;20050;-82
2023/05/05 03:56:42;;;;;;;43.55;23.17;;;;;;;;;;5016502;28;20050;-82
2023/05/05 03:59:27;;;;;;;41.80;22.73;;;;;;;;;;5016488;28;20042;-78
2023/05/05 04:02:13;;;;;;;52.00;24.27;;;;;;;;;;5022309;28;20399;-82
2023/05/05 04:04:59;;;;;;;59.17;24.88;;;;;;;;;;5021822;28;20045;-82
2023/05/05 04:07:45;;;;;;;47.78;26.48;;;;;;;;;;5022263;28;20046;-78
2023/05/05 04:10:31;;;;;;;42.50;23.88;;;;;;;;;;5021777;28;20050;-82
2023/05/05 04:13:17;;;;;;;41.05;23.95;;;;;;;;;;5022020;28;20038;-78
2023/05/05 04:16:02;;;;;;;47.42;24.77;;;;;;;;;;5022051;28;20403;-80
2023/05/05 04:18:48;;;;;;;53.50;24.00;;;;;;;;;;5021784;28;20045;-82
2023/05/05 04:21:34;;;;;;;54.95;23.33;;;;;;;;;;5021732;28;20038;-82
2023/05/05 04:24:23;;;;;;;45.30;23.35;;;;;;;;;;5015560;28;20388;-79
2023/05/05 04:27:08;;;;;;;38.65;21.98;;;;;;;;;;5021721;28;20054;-79
2023/05/05 04:29:54;;;;;;;40.95;21.40;;;;;;;;;;5021709;28;20046;-79
2023/05/05 04:32:40;;;;;;;32.53;20.48;;;;;;;;;;5021479;28;20045;-78
2023/05/05 04:35:26;;;;;;;23.42;14.38;;;;;;;;;;5021387;28;20053;-82
2023/05/05 04:38:12;;;;;;;31.92;18.50;;;;;;;;;;5021774;28;20045;-82
2023/05/05 04:40:58;;;;;;;31.75;19.08;;;;;;;;;;5021100;28;20038;-79
2023/05/05 04:43:44;;;;;;;58.47;21.63;;;;;;;;;;5015697;28;20038;-81
2023/05/05 04:46:33;;;;;;;35.60;21.38;;;;;;;;;;5020291;28;20411;-81
2023/05/05 04:49:18;;;;;;;35.00;20.08;;;;;;;;;;5021206;28;20079;-79
2023/05/05 04:52:04;;;;;;;32.88;20.38;;;;;;;;;;5015605;28;20041;-80
2023/05/05 04:54:49;;;;;;;35.83;20.73;;;;;;;;;;5015192;28;20033;-79
2023/05/05 04:57:36;;;;;;;30.05;18.35;;;;;;;;;;5015482;28;20049;-83
2023/05/05 05:00:22;;;;;;;25.58;16.55;;;;;;;;;;5020659;28;20388;-79
2023/05/05 05:03:07;;;;;;;27.88;18.73;;;;;;;;;;5021068;28;20045;-82
2023/05/05 05:05:52;;;;;;;35.80;21.23;;;;;;;;;;5020714;28;20033;-82
2023/05/05 05:08:38;;;;;;;34.08;21.10;;;;;;;;;;5021102;28;20403;-79
2023/05/05 05:11:24;;;;;;;33.25;20.88;;;;;;;;;;5020600;28;20050;-82
2023/05/05 05:14:10;;;;;;;39.50;21.58;;;;;;;;;;5015284;28;20042;-81
2023/05/05 05:16:55;;;;;;;41.08;28.60;;;;;;;;;;5020618;28;20042;-79
2023/05/05 05:19:42;;;;;;;39.33;20.85;;;;;;;;;;5020155;28;20037;-81
2023/05/05 05:22:28;;;;;;;29.35;18.45;;;;;;;;;;5020610;28;20072;-81
2023/05/05 05:25:14;;;;;;;31.73;19.35;;;;;;;;;;5014924;28;20049;-81
2023/05/05 05:27:59;;;;;;;283.85;172.25;;;;;;;;;;5020486;28;20037;-80
2023/05/05 05:30:45;;;;;;;96.10;53.78;;;;;;;;;;5020566;28;20050;-79
2023/05/05 05:33:30;;;;;;;39.38;22.33;;;;;;;;;;5020426;28;20042;-81
2023/05/05 05:36:17;;;;;;;39.00;21.63;;;;;;;;;;5019174;28;20050;-78
2023/05/05 05:39:03;;;;;;;25.23;17.23;;;;;;;;;;5020330;28;20041;-82
2023/05/05 05:41:48;;;;;;;26.80;17.70;;;;;;;;;;5020257;28;20149;-82
2023/05/05 05:44:34;;;;;;;29.55;17.45;;;;;;;;;;5017812;28;20061;-83
2023/05/05 05:47:19;;;;;;;26.13;17.60;;;;;;;;;;5014159;28;20034;-79
2023/05/05 05:50:05;;;;;;;27.88;17.77;;;;;;;;;;5013335;28;20050;-82
2023/05/05 05:52:52;;;;;;;27.60;19.00;;;;;;;;;;5018761;28;20049;-78
2023/05/05 05:55:37;;;;;;;29.52;19.20;;;;;;;;;;5019824;28;20042;-82
2023/05/05 05:58:23;;;;;;;28.60;17.13;;;;;;;;;;5018662;28;20046;-79
2023/05/05 06:01:08;;;;;;;24.92;16.80;;;;;;;;;;5018754;28;20042;-79
2023/05/05 06:03:54;;;;;;;27.90;17.95;;;;;;;;;;5012865;28;20042;-83
2023/05/05 06:06:39;;;;;;;31.00;18.08;;;;;;;;;;5018175;28;20042;-82
2023/05/05 06:09:25;;;;;;;31.77;19.08;;;;;;;;;;5018278;28;20038;-79
2023/05/05 06:12:13;;;;;;;28.40;18.00;;;;;;;;;;5019144;28;20045;-82
2023/05/05 06:14:58;;;;;;;29.83;19.10;;;;;;;;;;5014520;28;20038;-78
2023/05/05 06:17:43;;;;;;;24.73;16.83;;;;;;;;;;5013869;28;20484;-82
2023/05/05 06:20:29;;;;;;;27.83;17.30;;;;;;;;;;5013673;28;20042;-79
2023/05/05 06:23:14;;;;;;;23.98;15.90;;;;;;;;;;5019598;28;20046;-82
2023/05/05 06:26:05;;;;;;;26.40;16.00;;;;;;;;;;5018538;28;20042;-82
2023/05/05 06:28:56;;;;;;;25.73;15.85;;;;;;;;;;5014381;28;20491;-81
2023/05/05 06:31:42;;;;;;;22.63;15.90;;;;;;;;;;5018755;28;20045;-83
2023/05/05 06:34:26;;;;;;;22.85;15.93;;;;;;;;;;5012975;28;20054;-82
2023/05/05 06:37:13;;;;;;;23.55;15.65;;;;;;;;;;5011819;28;20484;-82
2023/05/05 06:39:58;;;;;;;25.42;15.55;;;;;;;;;;5013172;28;20050;-82
2023/05/05 06:42:44;;;;;;;21.08;14.32;;;;;;;;;;5013000;28;20045;-81
2023/05/05 06:45:35;;;;;;;18.90;14.90;;;;;;;;;;5013175;28;20399;-81
2023/05/05 06:48:20;;;;;;;21.52;15.65;;;;;;;;;;5012948;28;20050;-79
2023/05/05 06:51:06;;;;;;;25.63;16.25;;;;;;;;;;5012890;28;20046;-79
2023/05/05 06:53:52;;;;;;;23.23;16.23;;;;;;;;;;5013918;28;20038;-79
2023/05/05 06:56:37;;;;;;;24.67;15.48;;;;;;;;;;5018867;28;20042;-79
2023/05/05 06:59:23;;;;;;;20.95;12.25;;;;;;;;;;5012832;28;20050;-81
2023/05/05 07:02:08;;;;;;;23.45;14.80;;;;;;;;;;5012480;28;20050;-83
2023/05/05 07:04:54;;;;;;;22.63;13.70;;;;;;;;;;5013039;28;20046;-82
2023/05/05 07:07:52;;;;;;;23.67;15.20;;;;;;;;;;5012942;28;20347;-82
2023/05/05 07:10:37;;;;;;;22.20;15.02;;;;;;;;;;5011916;28;20038;-78
2023/05/05 07:13:22;;;;;;;25.80;15.77;;;;;;;;;;5012886;28;20475;-80
2023/05/05 07:16:08;;;;;;;19.58;13.70;;;;;;;;;;5012677;28;20049;-81
2023/05/05 07:18:54;;;;;;;20.55;14.23;;;;;;;;;;5012545;28;20423;-78
2023/05/05 07:21:39;;;;;;;20.65;14.02;;;;;;;;;;5012441;28;20519;-81
2023/05/05 07:24:25;;;;;;;21.00;14.73;;;;;;;;;;5012861;28;20042;-82
2023/05/05 07:27:10;;;;;;;22.63;14.65;;;;;;;;;;5012357;28;20046;-78
2023/05/05 07:29:56;;;;;;;18.98;14.55;;;;;;;;;;5012580;28;20054;-81
2023/05/05 07:32:42;;;;;;;20.83;14.25;;;;;;;;;;5012890;28;20049;-78
2023/05/05 07:35:27;;;;;;;19.98;13.73;;;;;;;;;;5012320;28;20050;-78
2023/05/05 07:38:13;;;;;;;18.55;12.63;;;;;;;;;;5012354;28;20046;-83
2023/05/05 07:40:58;;;;;;;17.23;12.10;;;;;;;;;;5012333;28;20407;-78
2023/05/05 07:43:44;;;;;;;17.58;12.88;;;;;;;;;;5013457;28;20046;-79
2023/05/05 07:46:30;;;;;;;21.58;13.32;;;;;;;;;;5013172;28;20042;-78
2023/05/05 07:49:15;;;;;;;17.50;12.70;;;;;;;;;;5013211;28;20391;-78
2023/05/05 07:52:01;;;;;;;18.00;13.70;;;;;;;;;;5013000;28;20038;-79
2023/05/05 07:54:47;;;;;;;18.95;12.15;;;;;;;;;;5012900;28;20053;-78
2023/05/05 07:57:32;;;;;;;24.60;13.38;;;;;;;;;;5013166;28;20050;-81
2023/05/05 08:00:18;;;;;;;23.00;13.48;;;;;;;;;;5021649;28;20041;-79
2023/05/05 08:03:03;;;;;;;17.10;13.02;;;;;;;;;;5016709;28;20050;-78
2023/05/05 08:05:50;;;;;;;15.70;10.40;;;;;;;;;;5016357;28;20042;-77
2023/05/05 08:08:36;;;;;;;18.77;13.32;;;;;;;;;;5016359;28;20050;-82
2023/05/05 08:11:22;;;;;;;20.02;14.00;;;;;;;;;;5016284;28;20050;-83
2023/05/05 08:14:08;;;;;;;19.95;12.52;;;;;;;;;;5016187;28;20042;-79
2023/05/05 08:16:53;;;;;;;16.05;10.48;;;;;;;;;;5016230;28;20046;-80
2023/05/05 08:19:39;;;;;;;19.05;11.50;;;;;;;;;;5016152;28;20042;-78
2023/05/05 08:22:25;;;;;;;21.45;10.85;;;;;;;;;;5015978;28;20053;-78
2023/05/05 08:25:11;;;;;;;17.48;12.43;;;;;;;;;;5015901;28;20041;-80
2023/05/05 08:27:56;;;;;;;17.25;12.45;;;;;;;;;;5016115;28;20049;-82
2023/05/05 08:30:42;;;;;;;15.50;11.85;;;;;;;;;;5015896;28;20046;-82
2023/05/05 08:33:27;;;;;;;13.82;10.32;;;;;;;;;;5015085;28;20042;-80
2023/05/05 08:36:14;;;;;;;16.27;11.00;;;;;;;;;;5015955;28;20046;-77
2023/05/05 08:39:00;;;;;;;16.42;11.02;;;;;;;;;;5016053;28;20491;-77
2023/05/05 08:41:45;;;;;;;15.30;10.48;;;;;;;;;;5015385;28;20479;-78
2023/05/05 08:44:32;;;;;;;19.23;11.23;;;;;;;;;;5015921;28;20042;-75
2023/05/05 08:47:21;;;;;;;13.77;10.40;;;;;;;;;;5015719;28;20042;-76
2023/05/05 08:50:09;;;;;;;13.30;9.52;;;;;;;;;;5015940;28;20050;-77
2023/05/05 08:53:13;;;;;;;13.20;10.43;;;;;;;;;;5015888;28;20050;-75
2023/05/05 08:56:00;;;;;;;12.40;10.88;;;;;;;;;;5015558;28;20050;-75
2023/05/05 08:58:48;;;;;;;17.20;11.50;;;;;;;;;;5015834;28;20495;-76
2023/05/05 09:01:34;;;;;;;13.50;8.85;;;;;;;;;;5014357;28;20046;-77
2023/05/05 09:04:20;;;;;;;12.05;9.98;;;;;;;;;;5014675;28;20041;-75
2023/05/05 09:07:05;;;;;;;15.88;10.05;;;;;;;;;;5014472;28;20479;-76
2023/05/05 09:09:54;;;;;;;13.77;10.25;;;;;;;;;;5014620;28;20041;-77
2023/05/05 09:12:40;;;;;;;14.32;10.30;;;;;;;;;;5013558;28;20050;-76
2023/05/05 09:15:27;;;;;;;14.32;10.00;;;;;;;;;;5022523;28;20476;-78
2023/05/05 09:18:13;;;;;;;13.10;10.10;;;;;;;;;;5014323;28;20038;-78
2023/05/05 09:20:59;;;;;;;12.20;9.18;;;;;;;;;;5014240;28;20483;-76
2023/05/05 09:24:02;;;;;;;11.30;9.63;;;;;;;;;;5014048;28;20046;-78
2023/05/05 09:26:48;;;;;;;14.45;10.07;;;;;;;;;;5014217;28;20061;-77
2023/05/05 09:29:33;;;;;;;11.05;8.02;;;;;;;;;;5014089;28;20042;-77
2023/05/05 09:32:18;;;;;;;12.18;9.10;;;;;;;;;;5015347;28;20384;-79
2023/05/05 09:35:03;;;;;;;13.80;9.77;;;;;;;;;;5015234;28;20042;-78
2023/05/05 09:37:49;;;;;;;11.45;9.43;;;;;;;;;;5014322;28;20046;-76
2023/05/05 09:40:50;;;;;;;12.80;9.30;;;;;;;;;;5014616;28;20046;-76
2023/05/05 09:43:51;;;;;;;10.73;9.07;;;;;;;;;;5014305;28;20046;-79
2023/05/05 09:46:37;;;;;;;13.13;9.13;;;;;;;;;;5014510;28;20041;-79
2023/05/05 09:49:24;;;;;;;12.43;8.75;;;;;;;;;;5016208;28;20042;-78
2023/05/05 09:52:16;;;;;;;8.55;7.40;;;;;;;;;;5020923;28;20057;-79
2023/05/05 09:55:02;;;;;;;9.98;7.63;;;;;;;;;;5016283;28;20388;-80
2023/05/05 09:57:47;;;;;;;18.15;10.50;;;;;;;;;;5022110;28;20045;-79
2023/05/05 10:00:38;;;;;;;7.75;6.15;;;;;;;;;;5015421;28;20409;-80
2023/05/05 10:03:24;;;;;;;21.42;10.98;;;;;;;;;;5013497;28;20041;-80
2023/05/05 10:06:10;;;;;;;11.00;6.90;;;;;;;;;;5014249;28;20046;-80
2023/05/05 10:09:05;;;;;;;12.27;7.97;;;;;;;;;;5015023;28;20046;-80
2023/05/05 10:11:51;;;;;;;9.70;7.45;;;;;;;;;;5017012;28;20046;-80
2023/05/05 10:14:36;;;;;;;61.15;41.13;;;;;;;;;;5015121;28;20484;-78
2023/05/05 10:17:22;;;;;;;8.30;7.03;;;;;;;;;;5012629;28;20042;-76
2023/05/05 10:20:09;;;;;;;10.05;6.88;;;;;;;;;;5014881;28;20400;-78
2023/05/05 10:22:56;;;;;;;10.05;7.95;;;;;;;;;;5021849;28;20411;-79
2023/05/05 10:25:58;;;;;;;10.88;7.90;;;;;;;;;;5014050;28;20038;-80
2023/05/05 10:28:49;;;;;;;8.80;7.40;;;;;;;;;;5013898;28;20037;-78
2023/05/05 10:31:56;;;;;;;9.88;7.00;;;;;;;;;;5013847;28;20054;-80
2023/05/05 10:34:56;;;;;;;8.48;7.35;;;;;;;;;;5015626;28;20049;-79
2023/05/05 10:37:44;;;;;;;10.90;7.55;;;;;;;;;;5014627;28;20053;-77
2023/05/05 10:40:30;;;;;;;8.70;7.13;;;;;;;;;;5013875;28;20042;-77
2023/05/05 10:43:16;;;;;;;9.27;7.15;;;;;;;;;;5014271;28;20046;-78
2023/05/05 10:46:01;;;;;;;10.07;7.13;;;;;;;;;;5013877;28;20046;-77
2023/05/05 10:49:01;;;;;;;9.55;7.70;;;;;;;;;;5012928;28;20053;-77
2023/05/05 10:51:50;;;;;;;8.55;7.22;;;;;;;;;;5014108;28;20045;-77
2023/05/05 10:54:38;;;;;;;9.32;6.90;;;;;;;;;;5014122;28;20041;-77
2023/05/05 10:57:25;;;;;;;10.05;6.95;;;;;;;;;;5013821;28;20049;-77
2023/05/05 11:00:39;;;;;;;8.95;6.78;;;;;;;;;;5013570;28;20480;-77
2023/05/05 11:03:25;;;;;;;14.47;6.97;;;;;;;;;;5014033;28;20053;-78
2023/05/05 11:06:11;;;;;;;8.13;6.45;;;;;;;;;;5014106;28;20046;-77
2023/05/05 11:08:56;;;;;;;8.55;5.00;;;;;;;;;;5014169;28;20046;-77
2023/05/05 11:12:01;;;;;;;12.45;7.22;;;;;;;;;;5016785;28;20483;-77
2023/05/05 11:14:46;;;;;;;11.13;6.53;;;;;;;;;;5018853;28;20392;-77
2023/05/05 11:17:59;;;;;;;8.70;6.90;;;;;;;;;;5017693;28;20045;-77
2023/05/05 11:20:47;;;;;;;11.10;7.10;;;;;;;;;;5020242;28;20042;-77
2023/05/05 11:23:33;;;;;;;9.60;7.40;;;;;;;;;;5013595;28;20046;-77
2023/05/05 11:26:49;;;;;;;10.73;7.80;;;;;;;;;;5013518;28;20049;-79
2023/05/05 11:30:08;;;;;;;11.90;6.65;;;;;;;;;;5013813;28;20046;-78
2023/05/05 11:33:27;;;;;;;7.18;6.47;;;;;;;;;;5013485;28;20042;-77
2023/05/05 11:36:14;;;;;;;9.07;7.25;;;;;;;;;;5016918;28;20061;-75
2023/05/05 11:39:08;;;;;;;9.20;7.18;;;;;;;;;;5016917;28;20041;-76
2023/05/05 11:42:11;;;;;;;54.65;42.67;;;;;;;;;;5017002;28;20042;-76
2023/05/05 11:44:57;;;;;;;10.23;7.45;;;;;;;;;;5016929;28;20046;-76
2023/05/05 11:47:42;;;;;;;31.13;21.85;;;;;;;;;;5016400;28;20411;-77
2023/05/05 11:50:31;;;;;;;9.55;6.50;;;;;;;;;;5023715;28;20058;-78
2023/05/05 11:53:18;;;;;;;244.68;179.43;;;;;;;;;;5016919;28;20045;-76
2023/05/05 11:56:08;;;;;;;26.27;18.15;;;;;;;;;;5017443;28;20041;-77
2023/05/05 11:59:10;;;;;;;10.02;8.23;;;;;;;;;;5023175;28;20510;-76
2023/05/05 12:01:55;;;;;;;8.75;6.97;;;;;;;;;;5015513;28;20041;-76
2023/05/05 12:04:41;;;;;;;8.38;6.07;;;;;;;;;;5016761;28;20041;-77
2023/05/05 12:07:29;;;;;;;7.97;6.07;;;;;;;;;;5016698;28;20049;-77
2023/05/05 12:10:21;;;;;;;13.02;9.73;;;;;;;;;;5017024;28;20046;-79
2023/05/05 12:13:17;;;;;;;8.88;5.97;;;;;;;;;;5016408;28;20042;-79
2023/05/05 12:16:14;;;;;;;14.15;9.23;;;;;;;;;;5016637;28;20042;-81
2023/05/05 12:19:06;;;;;;;10.15;7.93;;;;;;;;;;5016268;28;20045;-81
2023/05/05 12:21:53;;;;;;;6.73;6.00;;;;;;;;;;5015839;28;20041;-80
2023/05/05 12:24:38;;;;;;;13.27;7.60;;;;;;;;;;5016636;28;20280;-80
2023/05/05 12:27:25;;;;;;;10.50;7.07;;;;;;;;;;5016315;28;20045;-79
2023/05/05 12:30:14;;;;;;;13.70;6.70;;;;;;;;;;5016464;28;20394;-78
2023/05/05 12:33:09;;;;;;;9.45;6.85;;;;;;;;;;5016856;28;20447;-80
2023/05/05 12:35:55;;;;;;;10.00;6.75;;;;;;;;;;5015762;28;20034;-81
2023/05/05 12:38:40;;;;;;;7.25;6.40;;;;;;;;;;5016453;28;20038;-82
2023/05/05 12:41:27;;;;;;;11.50;8.13;;;;;;;;;;5015911;28;20050;-78
2023/05/05 12:44:12;;;;;;;8.43;6.20;;;;;;;;;;5015105;28;20053;-79
2023/05/05 12:46:58;;;;;;;11.45;5.75;;;;;;;;;;5015853;28;20412;-78
2023/05/05 12:49:48;;;;;;;9.10;6.60;;;;;;;;;;5014849;28;20046;-79
2023/05/05 12:52:44;;;;;;;10.25;6.43;;;;;;;;;;5015536;28;20042;-79
2023/05/05 12:55:36;;;;;;;8.35;6.65;;;;;;;;;;5015974;28;20045;-81
2023/05/05 12:58:22;;;;;;;8.50;6.50;;;;;;;;;;5015929;28;20054;-80
2023/05/05 13:01:09;;;;;;;9.10;6.20;;;;;;;;;;5014962;28;20173;-80
2023/05/05 13:04:09;;;;;;;6.57;5.88;;;;;;;;;;5015598;28;20045;-80
2023/05/05 13:07:11;;;;;;;6.43;5.50;;;;;;;;;;5021310;28;20046;-81
2023/05/05 13:10:15;;;;;;;6.82;5.95;;;;;;;;;;5017832;28;20388;-79
2023/05/05 13:13:03;;;;;;;6.85;5.13;;;;;;;;;;5016661;28;20045;-79
2023/05/05 13:15:51;;;;;;;10.07;5.13;;;;;;;;;;5015667;28;20049;-81
2023/05/05 13:18:44;;;;;;;10.38;5.63;;;;;;;;;;5015505;28;20483;-78
2023/05/05 13:21:30;;;;;;;6.85;5.30;;;;;;;;;;5018047;28;20038;-80
2023/05/05 13:24:17;;;;;;;7.32;5.45;;;;;;;;;;5016166;28;20041;-80
2023/05/05 13:27:06;;;;;;;6.43;4.85;;;;;;;;;;5022707;28;20042;-80
2023/05/05 13:29:52;;;;;;;6.43;5.28;;;;;;;;;;5015229;28;20046;-79
2023/05/05 13:32:37;;;;;;;8.45;4.97;;;;;;;;;;5014769;28;20049;-80
2023/05/05 13:35:23;;;;;;;8.32;5.10;;;;;;;;;;5020935;28;20042;-77
2023/05/05 13:38:09;;;;;;;6.43;5.03;;;;;;;;;;5014960;28;20042;-77
2023/05/05 13:40:55;;;;;;;5.25;4.53;;;;;;;;;;5014859;28;20046;-79
2023/05/05 13:43:40;;;;;;;6.25;4.63;;;;;;;;;;5015174;28;20050;-77
2023/05/05 13:46:25;;;;;;;5.32;3.70;;;;;;;;;;4975616;28;20046;-80
2023/05/05 13:49:11;;;;;;;6.53;3.95;;;;;;;;;;4975651;28;20046;-79
2023/05/05 13:51:57;;;;;;;5.90;3.90;;;;;;;;;;4974964;28;20047;-78
2023/05/05 13:54:42;;;;;;;6.00;4.45;;;;;;;;;;4975623;28;20043;-78
2023/05/05 13:57:28;;;;;;;5.70;3.88;;;;;;;;;;4974875;28;20046;-80
2023/05/05 14:00:14;;;;;;;11.05;4.07;;;;;;;;;;4975522;28;20042;-80
2023/05/05 14:03:00;;;;;;;6.88;4.70;;;;;;;;;;4975445;28;20405;-76
2023/05/05 14:05:46;;;;;;;6.50;4.05;;;;;;;;;;4975637;28;20034;-79
2023/05/05 14:08:31;;;;;;;6.35;3.63;;;;;;;;;;4975664;28;20477;-76
2023/05/05 14:11:17;;;;;;;7.05;3.67;;;;;;;;;;4975071;28;20051;-80
2023/05/05 14:14:02;;;;;;;4.22;3.58;;;;;;;;;;4975197;28;20043;-81
2023/05/05 14:16:48;;;;;;;5.13;3.40;;;;;;;;;;4975093;28;20043;-82
2023/05/05 14:19:33;;;;;;;5.50;3.70;;;;;;;;;;4975023;28;20051;-80
2023/05/05 14:22:19;;;;;;;4.18;3.72;;;;;;;;;;4974799;28;20042;-81
2023/05/05 14:25:05;;;;;;;6.07;3.83;;;;;;;;;;4975374;28;20055;-82
2023/05/05 14:27:51;;;;;;;5.80;3.50;;;;;;;;;;4974098;28;20050;-80
2023/05/05 14:30:38;;;;;;;5.30;3.50;;;;;;;;;;4994227;28;20038;-80
2023/05/05 14:33:23;;;;;;;5.63;3.25;;;;;;;;;;4974794;28;20051;-79
2023/05/05 14:36:09;;;;;;;6.32;3.55;;;;;;;;;;4974869;28;20050;-80
2023/05/05 14:38:54;;;;;;;4.72;3.88;;;;;;;;;;4980878;28;20051;-80
2023/05/05 14:41:40;;;;;;;7.70;3.05;;;;;;;;;;4974760;28;20046;-80
2023/05/05 14:44:26;;;;;;;5.45;3.40;;;;;;;;;;4984696;28;20034;-80
2023/05/05 14:47:11;;;;;;;6.90;3.78;;;;;;;;;;5014181;28;20046;-79
2023/05/05 14:49:57;;;;;;;5.43;3.60;;;;;;;;;;5014052;28;20033;-80
2023/05/05 14:52:43;;;;;;;4.57;3.63;;;;;;;;;;5013942;28;20484;-80
2023/05/05 14:55:28;;;;;;;4.80;3.60;;;;;;;;;;5013700;28;20045;-79
2023/05/05 14:58:14;;;;;;;4.05;3.38;;;;;;;;;;5014236;28;20042;-79
2023/05/05 15:00:59;;;;;;;4.50;3.10;;;;;;;;;;5013733;28;20494;-80
2023/05/05 15:03:45;;;;;;;4.82;3.40;;;;;;;;;;5013721;28;20042;-79
2023/05/05 15:06:31;;;;;;;3.92;3.30;;;;;;;;;;5014203;28;20058;-79
2023/05/05 15:09:17;;;;;;;6.30;3.15;;;;;;;;;;5018814;28;20042;-81
2023/05/05 15:12:03;;;;;;;5.47;3.40;;;;;;;;;;5019802;28;20065;-80
2023/05/05 15:14:48;;;;;;;4.25;3.20;;;;;;;;;;5022385;28;20041;-82
2023/05/05 15:17:36;;;;;;;6.05;3.17;;;;;;;;;;5020180;28;20046;-80
2023/05/05 15:20:21;;;;;;;7.75;3.28;;;;;;;;;;5022123;28;20359;-82
2023/05/05 15:23:07;;;;;;;4.07;3.22;;;;;;;;;;5021520;28;20046;-80
2023/05/05 15:25:53;;;;;;;4.68;3.13;;;;;;;;;;5018170;28;20046;-79
2023/05/05 15:28:38;;;;;;;5.30;3.15;;;;;;;;;;5017249;28;20045;-79
2023/05/05 15:31:24;;;;;;;3.63;2.95;;;;;;;;;;5017543;28;20041;-80
2023/05/05 15:34:09;;;;;;;4.40;3.08;;;;;;;;;;5017488;28;20068;-81
2023/05/05 15:36:55;;;;;;;3.75;2.70;;;;;;;;;;5016894;28;20046;-80
2023/05/05 15:39:40;;;;;;;5.15;2.65;;;;;;;;;;5017183;28;20042;-79
2023/05/05 15:42:26;;;;;;;3.28;2.97;;;;;;;;;;5016773;28;20046;-79
2023/05/05 15:45:13;;;;;;;3.20;2.50;;;;;;;;;;5016150;28;20049;-80
2023/05/05 15:47:58;;;;;;;3.72;2.65;;;;;;;;;;5016928;28;20054;-79
2023/05/05 15:50:43;;;;;;;4.30;2.75;;;;;;;;;;5016830;28;20042;-81
2023/05/05 15:53:32;;;;;;;4.43;2.28;;;;;;;;;;5017156;28;20057;-80
2023/05/05 15:56:18;;;;;;;2.97;2.33;;;;;;;;;;5016918;28;20041;-80
2023/05/05 15:59:04;;;;;;;3.17;2.65;;;;;;;;;;5016516;28;20045;-79
2023/05/05 16:01:49;;;;;;;4.72;3.10;;;;;;;;;;5016635;28;20050;-79
2023/05/05 16:04:35;;;;;;;6.28;2.78;;;;;;;;;;5016598;28;20038;-79
2023/05/05 16:07:20;;;;;;;4.63;3.30;;;;;;;;;;5016705;28;20487;-81
2023/05/05 16:10:09;;;;;;;4.35;2.95;;;;;;;;;;5016516;28;20053;-79
2023/05/05 16:12:55;;;;;;;4.20;2.55;;;;;;;;;;5016797;28;20046;-80
2023/05/05 16:15:40;;;;;;;4.22;3.08;;;;;;;;;;5016432;28;20487;-80
2023/05/05 16:18:25;;;;;;;5.70;3.10;;;;;;;;;;5016545;28;20038;-83
2023/05/05 16:21:11;;;;;;;4.05;2.65;;;;;;;;;;5016008;28;20054;-79
2023/05/05 16:23:56;;;;;;;4.88;2.72;;;;;;;;;;5015937;28;20042;-80
2023/05/05 16:26:42;;;;;;;3.03;2.33;;;;;;;;;;5016329;28;20050;-78
2023/05/05 16:29:28;;;;;;;4.32;2.95;;;;;;;;;;5016728;28;20049;-78
2023/05/05 16:32:17;;;;;;;3.83;2.80;;;;;;;;;;5016697;28;20046;-78